createdAt,value
2023-01-01T00:01:16.959Z,100.00
2023-01-01T00:03:44.705Z,100.00
2023-01-01T00:06:15.069Z,100.00
2023-01-01T00:08:44.031Z,100.00
2023-01-01T00:11:10.749Z,100.00
2023-01-01T00:13:41.466Z,100.00
2023-01-01T00:16:16.080Z,100.00
2023-01-01T00:18:47.333Z,100.00
2023-01-01T00:21:19.980Z,100.00
2023-01-01T00:23:47.910Z,100.00
2023-01-01T00:26:18.286Z,100.00
2023-01-01T00:28:47.881Z,100.00
2023-01-01T00:31:22.992Z,100.00
2023-01-01T00:33:57.963Z,100.00
2023-01-01T00:36:31.996Z,100.00
2023-01-01T00:39:02.475Z,100.00
2023-01-01T00:41:30.218Z,100.00
2023-01-01T00:44:01.147Z,100.00
2023-01-01T00:46:30.156Z,100.00
2023-01-01T00:48:59.258Z,100.00
2023-01-01T00:51:29.377Z,100.00
2023-01-01T00:54:01.981Z,100.00
2023-01-01T00:56:29.648Z,100.00
2023-01-01T00:59:00.865Z,100.00
2023-01-01T01:01:30.190Z,100.00
2023-01-01T01:03:58.233Z,100.00
2023-01-01T01:06:26.988Z,100.00
2023-01-01T01:08:54.676Z,100.00
2023-01-01T01:11:25.691Z,100.00
2023-01-01T01:13:58.017Z,100.00
2023-01-01T01:16:29.607Z,100.00
2023-01-01T01:19:01.233Z,100.00
2023-01-01T01:21:35.278Z,100.00
2023-01-01T01:24:04.570Z,100.00
2023-01-01T01:26:36.260Z,100.00
2023-01-01T01:29:06.527Z,100.00
2023-01-01T01:31:38.379Z,100.00
2023-01-01T01:34:07.144Z,100.00
2023-01-01T01:36:36.584Z,100.00
2023-01-01T01:39:06.644Z,100.00
2023-01-01T01:41:34.423Z,100.00
2023-01-01T01:44:05.784Z,100.00
2023-01-01T01:46:36.467Z,100.00
2023-01-01T01:49:14.821Z,100.00
2023-01-01T01:51:43.425Z,100.00
2023-01-01T01:54:26.831Z,100.00
2023-01-01T01:57:21.725Z,100.00
2023-01-01T01:59:56.039Z,100.00
2023-01-01T02:03:02.055Z,100.00
2023-01-01T02:05:32.594Z,100.00
2023-01-01T02:08:02.857Z,100.00
2023-01-01T02:10:30.856Z,100.00
2023-01-01T02:13:01.073Z,100.00
2023-01-01T02:15:38.225Z,100.00
2023-01-01T02:18:20.683Z,100.00
2023-01-01T02:20:48.294Z,100.00
2023-01-01T02:23:45.020Z,100.00
2023-01-01T02:26:38.569Z,100.00
2023-01-01T02:29:29.527Z,100.00
2023-01-01T02:32:21.416Z,100.00
2023-01-01T02:34:58.457Z,100.00
2023-01-01T02:37:30.882Z,100.00
2023-01-01T02:40:02.227Z,100.00
2023-01-01T02:42:35.453Z,100.00
2023-01-01T02:45:04.415Z,100.00
2023-01-01T02:47:35.419Z,100.00
2023-01-01T02:50:10.035Z,100.00
2023-01-01T02:52:59.095Z,100.00
2023-01-01T02:55:45.060Z,100.00
2023-01-01T02:59:16.162Z,100.00
2023-01-01T03:02:26.217Z,100.00
2023-01-01T03:05:15.020Z,100.00
2023-01-01T03:07:50.823Z,100.00
2023-01-01T03:10:30.081Z,100.00
2023-01-01T03:13:16.824Z,100.00
2023-01-01T03:16:00.844Z,100.00
2023-01-01T03:18:42.689Z,100.00
2023-01-01T03:23:50.085Z,100.00
2023-01-01T03:26:23.605Z,100.00
2023-01-01T03:28:59.362Z,100.00
2023-01-01T03:31:28.061Z,100.00
2023-01-01T03:34:14.414Z,100.00
2023-01-01T03:36:47.656Z,100.00
2023-01-01T03:39:30.812Z,100.00
2023-01-01T03:42:24.965Z,100.00
2023-01-01T03:45:04.229Z,100.00
2023-01-01T03:47:34.323Z,100.00
2023-01-01T03:50:06.600Z,100.00
2023-01-01T03:53:09.244Z,100.00
2023-01-01T03:55:49.917Z,100.00
2023-01-01T03:58:53.997Z,100.00
2023-01-01T04:01:28.605Z,100.00
2023-01-01T04:04:00.991Z,100.00
2023-01-01T04:06:29.195Z,100.00
2023-01-01T04:09:04.466Z,100.00
2023-01-01T04:11:51.141Z,100.00
2023-01-01T04:14:29.355Z,100.00
2023-01-01T04:16:58.968Z,100.00
2023-01-01T04:19:29.036Z,100.00
2023-01-01T04:21:57.264Z,100.00
2023-01-01T04:24:25.320Z,100.00
2023-01-01T04:26:54.697Z,100.00
2023-01-01T04:29:23.287Z,100.00
2023-01-01T04:31:51.597Z,100.00
2023-01-01T04:34:20.364Z,100.00
2023-01-01T04:36:48.292Z,100.00
2023-01-01T04:39:17.489Z,100.00
2023-01-01T04:41:48.058Z,100.00
2023-01-01T04:44:17.358Z,100.00
2023-01-01T04:46:45.050Z,100.00
2023-01-01T04:49:13.416Z,100.00
2023-01-01T04:51:42.509Z,100.00
2023-01-01T04:54:10.266Z,100.00
2023-01-01T04:56:42.173Z,100.00
2023-01-01T04:59:10.429Z,100.00
2023-01-01T05:01:39.656Z,100.00
2023-01-01T05:04:07.463Z,100.00
2023-01-01T05:06:35.123Z,100.00
2023-01-01T05:09:04.170Z,100.00
2023-01-01T05:11:32.361Z,100.00
2023-01-01T05:14:04.463Z,100.00
2023-01-01T05:16:40.151Z,100.00
2023-01-01T05:19:11.741Z,100.00
2023-01-01T05:21:43.435Z,100.00
2023-01-01T05:24:13.306Z,100.00
2023-01-01T05:26:45.208Z,100.00
2023-01-01T05:29:16.922Z,100.00
2023-01-01T05:31:47.578Z,100.00
2023-01-01T05:34:15.582Z,100.00
2023-01-01T05:36:43.624Z,100.00
2023-01-01T05:39:13.323Z,100.00
2023-01-01T05:41:42.564Z,100.00
2023-01-01T05:44:11.836Z,100.00
2023-01-01T05:46:44.293Z,100.00
2023-01-01T05:49:33.265Z,100.00
2023-01-01T05:55:28.671Z,100.00
2023-01-01T05:58:05.202Z,100.00
2023-01-01T06:00:33.219Z,100.00
2023-01-01T06:03:07.527Z,100.00
2023-01-01T06:05:36.722Z,100.00
2023-01-01T06:08:11.146Z,100.00
2023-01-01T06:10:38.903Z,100.00
2023-01-01T06:13:19.021Z,100.00
2023-01-01T06:15:55.231Z,100.00
2023-01-01T06:18:25.754Z,100.00
2023-01-01T06:20:58.431Z,100.00
2023-01-01T06:23:28.766Z,100.00
2023-01-01T06:25:57.089Z,100.00
2023-01-01T06:28:28.256Z,100.00
2023-01-01T06:31:02.158Z,100.00
2023-01-01T06:33:35.669Z,100.00
2023-01-01T06:36:07.752Z,100.00
2023-01-01T06:38:41.487Z,100.00
2023-01-01T06:41:16.975Z,100.00
2023-01-01T06:43:50.851Z,100.00
2023-01-01T06:46:22.829Z,100.00
2023-01-01T06:48:53.956Z,100.00
2023-01-01T06:51:43.826Z,100.00
2023-01-01T06:54:13.608Z,100.00
2023-01-01T06:56:43.825Z,100.00
2023-01-01T06:59:14.180Z,100.00
2023-01-01T07:01:45.358Z,100.00
2023-01-01T07:04:16.114Z,100.00
2023-01-01T07:06:44.936Z,100.00
2023-01-01T07:09:15.987Z,100.00
2023-01-01T07:11:46.053Z,100.00
2023-01-01T07:14:13.986Z,100.00
2023-01-01T07:16:42.555Z,100.00
2023-01-01T07:19:13.001Z,100.00
2023-01-01T07:21:54.969Z,100.00
2023-01-01T07:24:27.483Z,100.00
2023-01-01T07:26:59.671Z,100.00
2023-01-01T07:29:29.538Z,100.00
2023-01-01T07:32:00.004Z,100.00
2023-01-01T07:34:35.645Z,100.00
2023-01-01T07:37:03.904Z,100.00
2023-01-01T07:39:34.179Z,100.00
2023-01-01T07:42:07.592Z,100.00
2023-01-01T07:44:44.413Z,100.00
2023-01-01T07:47:23.793Z,100.00
2023-01-01T07:49:57.188Z,100.00
2023-01-01T07:52:27.769Z,100.00
2023-01-01T07:54:56.045Z,100.00
2023-01-01T07:57:23.811Z,100.00
2023-01-01T07:59:54.620Z,100.00
2023-01-01T08:02:22.753Z,100.00
2023-01-01T08:04:50.605Z,100.00
2023-01-01T08:07:18.663Z,100.00
2023-01-01T08:09:46.692Z,100.00
2023-01-01T08:12:18.627Z,100.00
2023-01-01T08:14:46.495Z,100.00
2023-01-01T08:17:16.569Z,100.00
2023-01-01T08:19:47.049Z,100.00
2023-01-01T08:22:16.511Z,100.00
2023-01-01T08:24:53.285Z,100.00
2023-01-01T08:27:21.361Z,100.00
2023-01-01T08:29:49.501Z,100.00
2023-01-01T08:32:21.756Z,100.00
2023-01-01T08:34:51.836Z,100.00
2023-01-01T08:37:22.910Z,100.00
2023-01-01T08:39:52.507Z,100.00
2023-01-01T08:42:26.035Z,100.00
2023-01-01T08:44:54.010Z,100.00
2023-01-01T08:47:27.596Z,100.00
2023-01-01T08:49:56.051Z,100.00
2023-01-01T08:52:27.718Z,100.00
2023-01-01T08:54:55.403Z,99.60
2023-01-01T08:57:23.220Z,98.33
2023-01-01T08:59:51.564Z,96.12
2023-01-01T09:02:21.859Z,94.82
2023-01-01T09:04:49.941Z,94.12
2023-01-01T09:07:17.561Z,93.62
2023-01-01T09:09:46.257Z,91.16
2023-01-01T09:12:17.538Z,88.18
2023-01-01T09:14:50.847Z,88.08
2023-01-01T09:17:20.859Z,88.81
2023-01-01T09:19:49.139Z,88.97
2023-01-01T09:22:18.283Z,88.76
2023-01-01T09:24:48.204Z,86.73
2023-01-01T09:27:17.800Z,85.47
2023-01-01T09:29:48.076Z,89.11
2023-01-01T09:32:18.925Z,89.51
2023-01-01T09:34:52.110Z,89.54
2023-01-01T09:37:21.353Z,89.49
2023-01-01T09:39:50.528Z,86.35
2023-01-01T09:42:39.932Z,90.99
2023-01-01T09:45:32.626Z,91.54
2023-01-01T09:48:07.257Z,91.53
2023-01-01T09:50:46.871Z,89.24
2023-01-01T09:53:17.956Z,87.54
2023-01-01T09:56:01.613Z,88.99
2023-01-01T09:58:34.476Z,88.61
2023-01-01T10:01:11.444Z,88.70
2023-01-01T10:04:13.440Z,89.27
2023-01-01T10:06:55.527Z,88.53
2023-01-01T10:09:47.196Z,86.02
2023-01-01T10:12:58.705Z,86.38
2023-01-01T10:15:34.643Z,86.89
2023-01-01T10:18:10.132Z,87.06
2023-01-01T10:20:43.619Z,87.26
2023-01-01T10:23:46.372Z,88.38
2023-01-01T10:26:24.121Z,89.10
2023-01-01T10:28:58.948Z,88.95
2023-01-01T10:31:29.675Z,88.94
2023-01-01T10:34:02.583Z,88.88
2023-01-01T10:36:32.634Z,88.92
2023-01-01T10:39:04.010Z,88.33
2023-01-01T10:41:40.126Z,87.69
2023-01-01T10:44:08.862Z,88.29
2023-01-01T10:46:38.360Z,88.02
2023-01-01T10:49:12.266Z,87.98
2023-01-01T10:51:53.227Z,88.68
2023-01-01T10:54:37.210Z,88.24
2023-01-01T10:57:40.615Z,88.26
2023-01-01T11:00:11.478Z,88.98
2023-01-01T11:02:50.743Z,89.70
2023-01-01T11:05:25.886Z,89.85
2023-01-01T11:07:53.584Z,90.04
2023-01-01T11:10:25.700Z,89.75
2023-01-01T11:13:10.657Z,90.17
2023-01-01T11:15:45.297Z,90.19
2023-01-01T11:18:27.874Z,89.94
2023-01-01T11:21:02.323Z,90.12
2023-01-01T11:23:39.559Z,90.50
2023-01-01T11:26:15.433Z,90.15
2023-01-01T11:28:43.479Z,89.75
2023-01-01T11:31:19.125Z,89.59
2023-01-01T11:33:57.415Z,89.17
2023-01-01T11:36:29.631Z,88.35
2023-01-01T11:39:29.993Z,86.98
2023-01-01T11:41:59.459Z,86.54
2023-01-01T11:44:33.388Z,85.73
2023-01-01T11:47:08.665Z,84.88
2023-01-01T11:49:40.488Z,85.55
2023-01-01T11:52:37.466Z,84.94
2023-01-01T11:55:14.546Z,85.11
2023-01-01T11:57:50.089Z,84.38
2023-01-01T12:00:18.630Z,84.97
2023-01-01T12:02:59.982Z,85.26
2023-01-01T12:05:45.326Z,85.99
2023-01-01T12:08:22.392Z,86.75
2023-01-01T12:11:32.695Z,87.37
2023-01-01T12:14:10.523Z,88.28
2023-01-01T12:16:40.514Z,88.96
2023-01-01T12:19:17.280Z,89.40
2023-01-01T12:21:52.505Z,89.28
2023-01-01T12:24:21.932Z,88.57
2023-01-01T12:26:56.969Z,87.08
2023-01-01T12:29:40.678Z,84.41
2023-01-01T12:32:23.481Z,83.39
2023-01-01T12:35:25.799Z,80.36
2023-01-01T12:37:53.582Z,81.03
2023-01-01T12:40:48.593Z,80.62
2023-01-01T12:44:06.203Z,79.53
2023-01-01T12:46:49.287Z,78.44
2023-01-01T12:49:28.275Z,79.50
2023-01-01T12:52:11.387Z,78.27
2023-01-01T12:55:13.498Z,79.85
2023-01-01T12:58:06.738Z,82.03
2023-01-01T13:00:36.326Z,82.59
2023-01-01T13:03:23.560Z,81.18
2023-01-01T13:05:58.171Z,82.18
2023-01-01T13:08:25.990Z,82.27
2023-01-01T13:10:59.385Z,82.72
2023-01-01T13:13:27.812Z,83.08
2023-01-01T13:15:59.531Z,84.26
2023-01-01T13:18:34.459Z,84.34
2023-01-01T13:21:20.870Z,84.95
2023-01-01T13:23:50.463Z,85.64
2023-01-01T13:26:35.831Z,86.33
2023-01-01T13:29:27.117Z,87.38
2023-01-01T13:32:04.815Z,87.85
2023-01-01T13:34:32.785Z,88.41
2023-01-01T13:37:27.814Z,88.94
2023-01-01T13:40:03.353Z,89.34
2023-01-01T13:42:57.418Z,90.26
2023-01-01T13:48:47.602Z,90.96
2023-01-01T13:51:54.972Z,91.51
2023-01-01T13:54:11.930Z,91.83
2023-01-01T13:56:49.868Z,92.25
2023-01-01T13:59:42.152Z,92.83
2023-01-01T14:02:34.366Z,93.29
2023-01-01T14:05:18.037Z,94.15
2023-01-01T14:07:51.650Z,93.96
2023-01-01T14:10:35.722Z,95.11
2023-01-01T14:13:17.594Z,95.16
2023-01-01T14:15:56.517Z,94.65
2023-01-01T14:18:34.662Z,95.39
2023-01-01T14:21:03.543Z,95.56
2023-01-01T14:23:54.212Z,95.51
2023-01-01T14:26:30.432Z,95.98
2023-01-01T14:29:11.343Z,97.81
2023-01-01T14:31:46.227Z,96.92
2023-01-01T14:34:23.470Z,97.26
2023-01-01T14:36:56.556Z,97.35
2023-01-01T14:39:38.586Z,97.72
2023-01-01T14:42:16.097Z,96.71
2023-01-01T14:44:46.200Z,98.20
2023-01-01T14:47:35.560Z,98.43
2023-01-01T14:50:12.747Z,98.17
2023-01-01T14:52:42.078Z,99.04
2023-01-01T14:55:19.778Z,99.44
2023-01-01T14:57:53.845Z,99.03
2023-01-01T15:00:34.151Z,98.58
2023-01-01T15:03:17.380Z,99.55
2023-01-01T15:05:58.965Z,100.00
2023-01-01T15:08:27.354Z,99.78
2023-01-01T15:10:56.545Z,100.00
2023-01-01T15:13:29.487Z,100.00
2023-01-01T15:16:16.702Z,100.00
2023-01-01T15:18:46.750Z,100.00
2023-01-01T15:21:46.165Z,100.00
2023-01-01T15:24:22.247Z,100.00
2023-01-01T15:27:02.600Z,100.00
2023-01-01T15:29:39.160Z,100.00
2023-01-01T15:32:14.457Z,100.00
2023-01-01T15:34:46.053Z,100.00
2023-01-01T15:37:21.126Z,100.00
2023-01-01T15:40:04.237Z,100.00
2023-01-01T15:42:38.580Z,100.00
2023-01-01T15:45:29.709Z,100.00
2023-01-01T15:48:11.762Z,100.00
2023-01-01T15:50:53.095Z,100.00
2023-01-01T15:53:41.207Z,100.00
2023-01-01T15:56:15.931Z,100.00
2023-01-01T15:59:29.930Z,100.00
2023-01-01T16:02:19.395Z,100.00
2023-01-01T16:04:52.255Z,100.00
2023-01-01T16:07:27.672Z,100.00
2023-01-01T16:09:58.185Z,100.00
2023-01-01T16:12:26.465Z,100.00
2023-01-01T16:14:56.814Z,100.00
2023-01-01T16:17:25.486Z,100.00
2023-01-01T16:19:55.044Z,100.00
2023-01-01T16:22:30.587Z,100.00
2023-01-01T16:25:07.586Z,100.00
2023-01-01T16:27:37.371Z,100.00
2023-01-01T16:30:05.392Z,100.00
2023-01-01T16:32:33.092Z,100.00
2023-01-01T16:35:08.134Z,100.00
2023-01-01T16:37:39.118Z,100.00
2023-01-01T16:40:10.709Z,100.00
2023-01-01T16:42:39.744Z,100.00
2023-01-01T16:45:15.617Z,100.00
2023-01-01T16:47:43.764Z,100.00
2023-01-01T16:50:12.802Z,100.00
2023-01-01T16:52:44.644Z,100.00
2023-01-01T16:55:13.104Z,100.00
2023-01-01T16:57:41.288Z,100.00
2023-01-01T17:00:11.421Z,100.00
2023-01-01T17:02:39.278Z,100.00
2023-01-01T17:05:07.510Z,100.00
2023-01-01T17:07:35.110Z,100.00
2023-01-01T17:10:02.896Z,100.00
2023-01-01T17:12:36.486Z,100.00
2023-01-01T17:15:18.159Z,100.00
2023-01-01T17:17:48.226Z,100.00
2023-01-01T17:20:16.948Z,100.00
2023-01-01T17:22:47.076Z,100.00
2023-01-01T17:25:16.999Z,100.00
2023-01-01T17:27:45.838Z,100.00
2023-01-01T17:30:15.551Z,100.00
2023-01-01T17:32:44.800Z,100.00
2023-01-01T17:35:12.799Z,100.00
2023-01-01T17:37:42.988Z,100.00
2023-01-01T17:40:14.973Z,100.00
2023-01-01T17:42:44.986Z,100.00
2023-01-01T17:45:16.214Z,100.00
2023-01-01T17:47:43.929Z,100.00
2023-01-01T17:50:14.252Z,100.00
2023-01-01T17:52:50.430Z,100.00
2023-01-01T17:55:18.035Z,100.00
2023-01-01T17:57:47.085Z,100.00
2023-01-01T18:00:15.477Z,100.00
2023-01-01T18:02:46.543Z,100.00
2023-01-01T18:05:14.735Z,100.00
2023-01-01T18:07:44.657Z,100.00
2023-01-01T18:10:12.843Z,100.00
2023-01-01T18:12:43.689Z,100.00
2023-01-01T18:15:11.738Z,100.00
2023-01-01T18:17:39.377Z,100.00
2023-01-01T18:20:09.895Z,100.00
2023-01-01T18:22:43.197Z,100.00
2023-01-01T18:25:15.807Z,100.00
2023-01-01T18:27:45.821Z,100.00
2023-01-01T18:30:15.683Z,100.00
2023-01-01T18:32:43.565Z,100.00
2023-01-01T18:35:11.470Z,100.00
2023-01-01T18:37:42.653Z,100.00
2023-01-01T18:40:18.499Z,100.00
2023-01-01T18:43:02.504Z,100.00
2023-01-01T18:45:32.598Z,100.00
2023-01-01T18:48:03.397Z,100.00
2023-01-01T18:50:43.576Z,100.00
2023-01-01T18:53:24.464Z,100.00
2023-01-01T18:56:16.689Z,100.00
2023-01-01T18:58:49.429Z,100.00
2023-01-01T19:01:24.328Z,100.00
2023-01-01T19:03:56.700Z,100.00
2023-01-01T19:06:31.078Z,100.00
2023-01-01T19:09:15.032Z,100.00
2023-01-01T19:11:44.017Z,100.00
2023-01-01T19:14:30.065Z,100.00
2023-01-01T19:17:02.723Z,100.00
2023-01-01T19:19:38.743Z,100.00
2023-01-01T19:22:34.794Z,100.00
2023-01-01T19:25:25.355Z,100.00
2023-01-01T19:27:53.687Z,100.00
2023-01-01T19:30:26.504Z,100.00
2023-01-01T19:32:54.147Z,100.00
2023-01-01T19:35:25.312Z,100.00
2023-01-01T19:37:59.547Z,100.00
2023-01-01T19:40:28.529Z,100.00
2023-01-01T19:42:56.743Z,100.00
2023-01-01T19:45:28.194Z,100.00
2023-01-01T19:47:56.011Z,100.00
2023-01-01T19:50:24.034Z,100.00
2023-01-01T19:52:52.811Z,100.00
2023-01-01T19:55:21.158Z,100.00
2023-01-01T19:57:50.896Z,100.00
2023-01-01T20:00:18.951Z,100.00
2023-01-01T20:03:25.958Z,100.00
2023-01-01T20:05:49.168Z,100.00
2023-01-01T20:08:25.180Z,100.00
2023-01-01T20:10:53.077Z,100.00
2023-01-01T20:13:21.056Z,100.00
2023-01-01T20:15:48.974Z,100.00
2023-01-01T20:18:18.260Z,100.00
2023-01-01T20:21:07.010Z,100.00
2023-01-01T20:23:37.692Z,100.00
2023-01-01T20:26:05.755Z,100.00
2023-01-01T20:28:51.109Z,100.00
2023-01-01T20:31:28.386Z,100.00
2023-01-01T20:34:01.076Z,100.00
2023-01-01T20:36:49.282Z,100.00
2023-01-01T20:39:24.522Z,100.00
2023-01-01T20:41:57.396Z,100.00
2023-01-01T20:47:14.513Z,100.00
2023-01-01T20:49:49.036Z,100.00
2023-01-01T20:52:16.874Z,100.00
2023-01-01T20:54:49.483Z,100.00
2023-01-01T20:57:18.342Z,100.00
2023-01-01T20:59:46.610Z,100.00
2023-01-01T21:02:17.265Z,100.00
2023-01-01T21:04:45.003Z,100.00
2023-01-01T21:07:14.268Z,100.00
2023-01-01T21:09:42.690Z,100.00
2023-01-01T21:12:13.657Z,100.00
2023-01-01T21:14:44.060Z,100.00
2023-01-01T21:17:24.143Z,100.00
2023-01-01T21:19:56.461Z,100.00
2023-01-01T21:22:24.338Z,100.00
2023-01-01T21:28:20.750Z,100.00
2023-01-01T21:30:57.746Z,100.00
2023-01-01T21:33:28.827Z,100.00
2023-01-01T21:35:56.581Z,100.00
2023-01-01T21:38:28.755Z,100.00
2023-01-01T21:41:02.444Z,100.00
2023-01-01T21:43:34.158Z,100.00
2023-01-01T21:46:08.039Z,100.00
2023-01-01T21:48:43.449Z,100.00
2023-01-01T21:51:31.944Z,100.00
2023-01-01T21:54:22.557Z,100.00
2023-01-01T21:57:11.347Z,100.00
2023-01-01T21:59:42.918Z,100.00
2023-01-01T22:02:37.980Z,100.00
2023-01-01T22:05:30.474Z,100.00
2023-01-01T22:07:59.327Z,100.00
2023-01-01T22:10:39.478Z,100.00
2023-01-01T22:13:15.699Z,100.00
2023-01-01T22:15:43.729Z,100.00
2023-01-01T22:18:40.309Z,100.00
2023-01-01T22:21:17.774Z,100.00
2023-01-01T22:23:47.491Z,100.00
2023-01-01T22:26:20.301Z,100.00
2023-01-01T22:28:51.310Z,100.00
2023-01-01T22:31:32.321Z,100.00
2023-01-01T22:34:04.441Z,100.00
2023-01-01T22:36:37.776Z,100.00
2023-01-01T22:39:15.161Z,100.00
2023-01-01T22:41:43.524Z,100.00
2023-01-01T22:44:14.800Z,100.00
2023-01-01T22:46:43.225Z,100.00
2023-01-01T22:49:22.996Z,100.00
2023-01-01T22:51:54.644Z,100.00
2023-01-01T22:54:24.762Z,100.00
2023-01-01T22:56:52.589Z,100.00
2023-01-01T22:59:20.702Z,100.00
2023-01-01T23:01:48.424Z,100.00
2023-01-01T23:04:17.161Z,100.00
2023-01-01T23:06:47.428Z,100.00
2023-01-01T23:09:15.096Z,100.00
2023-01-01T23:11:43.017Z,100.00
2023-01-01T23:14:28.670Z,100.00
2023-01-01T23:16:56.392Z,100.00
2023-01-01T23:19:24.034Z,100.00
2023-01-01T23:21:51.842Z,100.00
2023-01-01T23:24:21.925Z,100.00
2023-01-01T23:26:53.822Z,100.00
2023-01-01T23:29:23.398Z,100.00
2023-01-01T23:31:51.619Z,100.00
2023-01-01T23:34:19.282Z,100.00
2023-01-01T23:36:47.143Z,100.00
2023-01-01T23:39:17.306Z,100.00
2023-01-01T23:41:47.465Z,100.00
2023-01-01T23:44:15.104Z,100.00
2023-01-01T23:46:42.843Z,100.00
2023-01-01T23:49:11.570Z,100.00
2023-01-01T23:51:39.999Z,100.00
2023-01-01T23:54:12.479Z,100.00
2023-01-01T23:56:40.426Z,100.00
2023-01-01T23:59:08.657Z,100.00
